Time;durP1;ratioP1;P1;durP2;ratioP2;P2;SDS_P1;SDS_P2;PMS_P1;PMS_P2;Temp;Humidity;BMP_temperature;BMP_pressure;BME280_temperature;BME280_humidity;BME280_pressure;Samples;Min_cycle;Max_cycle;Signal;HPM_P1;HPM_P2
2023/08/15 00:01:52;;;;;;;;;;;18.90;99.90;;;;;;7326925;19;9432;-83
2023/08/15 00:04:21;;;;;;;;;;;18.90;99.90;;;;;;7326667;19;10639;-83
2023/08/15 00:06:53;;;;;;;;;;;18.90;99.90;;;;;;7326783;19;9252;-83
2023/08/15 00:09:21;;;;;;;;;;;18.90;99.90;;;;;;7325376;19;9177;-83
2023/08/15 00:11:51;;;;;;;;;;;18.90;99.90;;;;;;7326349;19;9499;-83
2023/08/15 00:14:19;;;;;;;;;;;18.90;99.90;;;;;;7328814;19;9305;-83
2023/08/15 00:16:48;;;;;;;;;;;18.80;99.90;;;;;;7326364;19;9551;-83
2023/08/15 00:19:17;;;;;;;;;;;18.70;99.90;;;;;;7325126;19;9198;-83
2023/08/15 00:21:46;;;;;;;;;;;18.80;99.90;;;;;;7326288;19;9404;-83
2023/08/15 00:24:18;;;;;;;;;;;18.80;99.90;;;;;;7326051;19;9339;-83
2023/08/15 00:26:47;;;;;;;;;;;18.70;99.90;;;;;;7326162;19;9717;-83
2023/08/15 00:29:16;;;;;;;;;;;18.70;99.90;;;;;;7324846;19;9469;-83
2023/08/15 00:31:45;;;;;;;;;;;18.60;99.90;;;;;;7325812;19;9147;-83
2023/08/15 00:34:14;;;;;;;;;;;18.60;99.90;;;;;;7326396;19;9136;-83
2023/08/15 00:36:43;;;;;;;;;;;18.60;99.90;;;;;;7326029;19;9181;-83
2023/08/15 00:39:12;;;;;;;;;;;18.50;99.90;;;;;;7324402;19;10889;-83
2023/08/15 00:41:44;;;;;;;;;;;18.50;99.90;;;;;;7326678;19;9205;-82
2023/08/15 00:44:13;;;;;;;;;;;18.50;99.90;;;;;;7325601;19;9185;-83
2023/08/15 00:46:43;;;;;;;;;;;18.50;99.90;;;;;;7325042;19;9289;-83
2023/08/15 00:49:13;;;;;;;;;;;18.40;99.90;;;;;;7323996;19;9256;-83
2023/08/15 00:51:43;;;;;;;;;;;18.40;99.90;;;;;;7325388;19;9197;-83
2023/08/15 00:54:12;;;;;;;;;;;18.40;99.90;;;;;;7324712;19;9203;-83
2023/08/15 00:56:44;;;;;;;;;;;18.30;99.90;;;;;;7324983;19;9169;-83
2023/08/15 00:59:13;;;;;;;;;;;18.30;99.90;;;;;;7324750;19;9273;-83
2023/08/15 01:01:42;;;;;;;;;;;18.30;99.90;;;;;;7324782;19;9259;-83
2023/08/15 01:04:11;;;;;;;;;;;18.30;99.90;;;;;;7324615;19;9189;-83
2023/08/15 01:06:41;;;;;;;;;;;18.20;99.90;;;;;;7324602;19;9205;-83
2023/08/15 01:09:10;;;;;;;;;;;18.30;99.90;;;;;;7323418;19;9197;-83
2023/08/15 01:11:53;;;;;;;;;;;18.20;99.90;;;;;;7324386;19;9181;-83
2023/08/15 01:14:28;;;;;;;;;;;18.20;99.90;;;;;;7327068;19;9185;-84
2023/08/15 01:17:00;;;;;;;;;;;18.10;99.90;;;;;;7324334;19;9208;-84
2023/08/15 01:19:39;;;;;;;;;;;18.10;99.90;;;;;;7324072;19;9475;-83
2023/08/15 01:22:26;;;;;;;;;;;18.00;99.90;;;;;;7324093;19;9305;-83
2023/08/15 01:24:58;;;;;;;;;;;18.00;99.90;;;;;;7323843;19;9441;-83
2023/08/15 01:27:27;;;;;;;;;;;18.10;99.90;;;;;;7323643;19;9186;-83
2023/08/15 01:29:59;;;;;;;;;;;18.00;99.90;;;;;;7322163;19;9181;-83
2023/08/15 01:32:39;;;;;;;;;;;18.00;99.90;;;;;;7321704;19;9188;-83
2023/08/15 01:35:17;;;;;;;;;;;18.10;99.90;;;;;;7323679;19;10797;-83
2023/08/15 01:37:57;;;;;;;;;;;18.10;99.90;;;;;;7323413;19;9182;-83
2023/08/15 01:40:32;;;;;;;;;;;18.20;99.90;;;;;;7322338;19;9363;-83
2023/08/15 01:43:03;;;;;;;;;;;18.30;99.90;;;;;;7322318;19;9212;-83
2023/08/15 01:45:33;;;;;;;;;;;18.30;99.90;;;;;;7323262;19;10320;-83
2023/08/15 01:48:02;;;;;;;;;;;18.30;99.90;;;;;;7323155;19;9179;-83
2023/08/15 01:50:31;;;;;;;;;;;18.30;99.90;;;;;;7321456;19;9287;-83
2023/08/15 01:53:00;;;;;;;;;;;18.30;99.90;;;;;;7323073;19;9591;-83
2023/08/15 01:55:32;;;;;;;;;;;18.20;99.90;;;;;;7323005;19;10357;-83
2023/08/15 01:58:01;;;;;;;;;;;18.20;99.90;;;;;;7322726;19;10230;-83
2023/08/15 02:00:29;;;;;;;;;;;18.20;99.90;;;;;;7322664;19;9264;-83
2023/08/15 02:02:58;;;;;;;;;;;18.20;99.90;;;;;;7322791;19;9510;-82
2023/08/15 02:05:27;;;;;;;;;;;18.20;99.90;;;;;;7322767;19;9193;-83
2023/08/15 02:07:56;;;;;;;;;;;18.20;99.90;;;;;;7322743;19;9432;-83
2023/08/15 02:10:25;;;;;;;;;;;18.20;99.90;;;;;;7320948;19;11242;-82
2023/08/15 02:12:57;;;;;;;;;;;18.10;99.90;;;;;;7322527;19;9167;-83
2023/08/15 02:15:26;;;;;;;;;;;18.10;99.90;;;;;;7322537;19;10329;-83
2023/08/15 02:17:55;;;;;;;;;;;18.10;99.90;;;;;;7322437;19;9193;-83
2023/08/15 02:20:24;;;;;;;;;;;18.10;99.90;;;;;;7323372;19;9120;-83
2023/08/15 02:22:53;;;;;;;;;;;18.10;99.90;;;;;;7322234;19;9176;-83
2023/08/15 02:25:23;;;;;;;;;;;18.10;99.90;;;;;;7322735;19;9189;-83
2023/08/15 02:27:52;;;;;;;;;;;18.00;99.90;;;;;;7322332;19;9316;-83
2023/08/15 02:30:25;;;;;;;;;;;18.00;99.90;;;;;;7320313;19;9419;-83
2023/08/15 02:32:54;;;;;;;;;;;17.90;99.90;;;;;;7321999;19;9137;-83
2023/08/15 02:35:22;;;;;;;;;;;17.90;99.90;;;;;;7322190;19;9339;-83
2023/08/15 02:37:51;;;;;;;;;;;17.80;99.90;;;;;;7321698;19;9181;-83
2023/08/15 02:40:20;;;;;;;;;;;17.90;99.90;;;;;;7320627;19;9175;-83
2023/08/15 02:42:49;;;;;;;;;;;17.80;99.90;;;;;;7322611;19;10209;-83
2023/08/15 02:45:18;;;;;;;;;;;17.80;99.90;;;;;;7331241;19;9154;-83
2023/08/15 02:47:50;;;;;;;;;;;17.80;99.90;;;;;;7330903;19;9158;-82
2023/08/15 02:50:19;;;;;;;;;;;17.80;99.90;;;;;;7327925;19;9206;-83
2023/08/15 02:52:48;;;;;;;;;;;17.80;99.90;;;;;;7328968;19;9289;-83
2023/08/15 02:55:17;;;;;;;;;;;17.80;99.90;;;;;;7328895;19;9400;-83
2023/08/15 02:57:46;;;;;;;;;;;17.80;99.90;;;;;;7328676;19;9189;-83
2023/08/15 03:00:16;;;;;;;;;;;17.80;99.90;;;;;;7329067;19;9213;-83
2023/08/15 03:02:45;;;;;;;;;;;17.90;99.90;;;;;;7328795;19;9254;-83
2023/08/15 03:05:17;;;;;;;;;;;17.90;99.90;;;;;;7329195;19;9286;-82
2023/08/15 03:07:46;;;;;;;;;;;17.90;99.90;;;;;;7328993;19;9194;-83
2023/08/15 03:10:15;;;;;;;;;;;18.00;99.90;;;;;;7326615;19;9177;-83
2023/08/15 03:12:44;;;;;;;;;;;17.90;99.90;;;;;;7327889;19;9993;-83
2023/08/15 03:15:13;;;;;;;;;;;18.00;99.90;;;;;;7327904;19;9185;-83
2023/08/15 03:17:42;;;;;;;;;;;18.00;99.90;;;;;;7328168;19;9212;-83
2023/08/15 03:20:12;;;;;;;;;;;18.00;99.90;;;;;;7327920;19;9177;-83
2023/08/15 03:22:46;;;;;;;;;;;18.00;99.90;;;;;;7327954;19;9177;-83
2023/08/15 03:25:15;;;;;;;;;;;18.10;99.90;;;;;;7327689;19;9173;-83
2023/08/15 03:27:44;;;;;;;;;;;18.10;99.90;;;;;;7327458;19;9177;-83
2023/08/15 03:30:14;;;;;;;;;;;18.10;99.90;;;;;;7326388;19;9327;-84
2023/08/15 03:32:43;;;;;;;;;;;18.20;99.90;;;;;;7327875;19;9423;-83
2023/08/15 03:35:12;;;;;;;;;;;18.10;99.90;;;;;;7327966;19;9464;-83
2023/08/15 03:37:41;;;;;;;;;;;18.10;99.90;;;;;;7327743;19;10153;-83
2023/08/15 03:40:14;;;;;;;;;;;18.00;99.90;;;;;;7324779;19;9209;-83
2023/08/15 03:42:43;;;;;;;;;;;18.00;99.90;;;;;;7326194;19;8948;-83
2023/08/15 03:45:13;;;;;;;;;;;18.00;99.90;;;;;;7327223;19;9224;-83
2023/08/15 03:47:44;;;;;;;;;;;18.10;99.90;;;;;;7326970;19;9535;-83
2023/08/15 03:50:13;;;;;;;;;;;18.10;99.90;;;;;;7326170;19;9263;-83
2023/08/15 03:52:42;;;;;;;;;;;18.10;99.90;;;;;;7326568;19;9124;-83
2023/08/15 03:55:14;;;;;;;;;;;18.10;99.90;;;;;;7324836;19;9131;-83
2023/08/15 03:57:42;;;;;;;;;;;18.10;99.90;;;;;;7326933;19;9118;-83
2023/08/15 04:00:14;;;;;;;;;;;18.20;99.90;;;;;;7326683;19;9179;-83
2023/08/15 04:02:43;;;;;;;;;;;18.10;99.90;;;;;;7326853;19;9172;-83
2023/08/15 04:05:12;;;;;;;;;;;18.10;99.90;;;;;;7326339;19;9662;-83
2023/08/15 04:07:42;;;;;;;;;;;18.10;99.90;;;;;;7326400;19;9244;-83
2023/08/15 04:10:16;;;;;;;;;;;18.10;99.90;;;;;;7325071;19;9472;-83
2023/08/15 04:12:46;;;;;;;;;;;18.00;99.90;;;;;;7328279;19;9217;-83
2023/08/15 04:15:15;;;;;;;;;;;18.00;99.90;;;;;;7326617;19;9174;-83
2023/08/15 04:17:44;;;;;;;;;;;18.00;99.90;;;;;;7325876;19;9165;-83
2023/08/15 04:20:15;;;;;;;;;;;18.00;99.90;;;;;;7326022;19;11373;-83
2023/08/15 04:22:44;;;;;;;;;;;18.00;99.90;;;;;;7326768;19;9883;-83
2023/08/15 04:25:14;;;;;;;;;;;18.00;99.90;;;;;;7325922;19;10145;-83
2023/08/15 04:27:46;;;;;;;;;;;17.90;99.90;;;;;;7325618;19;9503;-83
2023/08/15 04:30:15;;;;;;;;;;;18.00;99.90;;;;;;7324527;19;9181;-83
2023/08/15 04:32:45;;;;;;;;;;;18.00;99.90;;;;;;7325644;19;9197;-83
2023/08/15 04:35:14;;;;;;;;;;;17.90;99.90;;;;;;7325374;19;9300;-83
2023/08/15 04:37:43;;;;;;;;;;;18.00;99.90;;;;;;7325256;19;11395;-83
2023/08/15 04:40:15;;;;;;;;;;;18.00;99.90;;;;;;7324170;19;9328;-83
2023/08/15 04:42:46;;;;;;;;;;;18.00;99.90;;;;;;7324434;19;9546;-82
2023/08/15 04:45:15;;;;;;;;;;;18.10;99.90;;;;;;7325323;19;9483;-83
2023/08/15 04:47:44;;;;;;;;;;;18.10;99.90;;;;;;7324932;19;9633;-83
2023/08/15 04:50:13;;;;;;;;;;;18.20;99.90;;;;;;7325134;19;9233;-83
2023/08/15 04:52:42;;;;;;;;;;;18.30;99.90;;;;;;7327949;19;10383;-83
2023/08/15 04:55:13;;;;;;;;;;;18.30;99.90;;;;;;7328125;19;9121;-83
2023/08/15 04:57:42;;;;;;;;;;;18.40;99.90;;;;;;7325369;19;9359;-83
2023/08/15 05:00:19;;;;;;;;;;;18.40;99.90;;;;;;7325823;19;9449;-83
2023/08/15 05:02:48;;;;;;;;;;;18.50;99.90;;;;;;7324761;19;9224;-84
2023/08/15 05:05:17;;;;;;;;;;;18.50;99.90;;;;;;7324266;19;9162;-83
2023/08/15 05:07:46;;;;;;;;;;;18.60;99.90;;;;;;7324582;19;9177;-83
2023/08/15 05:10:15;;;;;;;;;;;18.60;99.90;;;;;;7322148;19;10933;-83
2023/08/15 05:12:44;;;;;;;;;;;18.60;99.90;;;;;;7326181;19;9190;-83
2023/08/15 05:15:18;;;;;;;;;;;18.70;99.90;;;;;;7324313;19;9286;-83
2023/08/15 05:17:48;;;;;;;;;;;18.80;99.90;;;;;;7324654;19;9222;-83
2023/08/15 05:20:17;;;;;;;;;;;18.80;99.90;;;;;;7324614;19;9238;-84
2023/08/15 05:22:47;;;;;;;;;;;18.90;99.90;;;;;;7324257;19;9235;-83
2023/08/15 05:25:17;;;;;;;;;;;19.00;99.90;;;;;;7324355;19;9122;-84
2023/08/15 05:27:45;;;;;;;;;;;19.10;99.90;;;;;;7324342;19;9276;-84
2023/08/15 05:30:15;;;;;;;;;;;19.20;99.90;;;;;;7323781;19;9481;-85
2023/08/15 05:32:47;;;;;;;;;;;19.30;99.90;;;;;;7323570;19;9288;-84
2023/08/15 05:35:16;;;;;;;;;;;19.40;99.90;;;;;;7323828;19;9181;-85
2023/08/15 05:37:45;;;;;;;;;;;19.40;99.90;;;;;;7323592;19;9189;-84
2023/08/15 05:40:14;;;;;;;;;;;19.50;99.90;;;;;;7322847;19;9222;-84
2023/08/15 05:42:45;;;;;;;;;;;19.50;99.90;;;;;;7322418;19;9384;-84
2023/08/15 05:45:14;;;;;;;;;;;19.60;99.90;;;;;;7323327;19;9225;-85
2023/08/15 05:47:43;;;;;;;;;;;19.50;99.90;;;;;;7322974;19;8944;-85
2023/08/15 05:50:15;;;;;;;;;;;19.50;99.90;;;;;;7322596;19;9133;-84
2023/08/15 05:52:44;;;;;;;;;;;19.50;99.90;;;;;;7323206;19;9165;-84
2023/08/15 05:55:13;;;;;;;;;;;19.40;99.90;;;;;;7323153;19;10161;-84
2023/08/15 05:57:42;;;;;;;;;;;19.40;99.90;;;;;;7323528;19;9606;-84
2023/08/15 06:00:13;;;;;;;;;;;19.40;99.90;;;;;;7323324;19;9565;-84
2023/08/15 06:02:42;;;;;;;;;;;19.40;99.90;;;;;;7321701;19;10650;-84
2023/08/15 06:05:14;;;;;;;;;;;19.50;99.90;;;;;;7322658;19;9247;-84
2023/08/15 06:07:43;;;;;;;;;;;19.50;99.90;;;;;;7322553;19;9229;-84
2023/08/15 06:10:13;;;;;;;;;;;19.50;99.90;;;;;;7321926;19;9225;-83
2023/08/15 06:12:43;;;;;;;;;;;19.60;99.90;;;;;;7324543;19;9242;-84
2023/08/15 06:15:13;;;;;;;;;;;19.50;99.90;;;;;;7322275;19;10161;-84
2023/08/15 06:17:45;;;;;;;;;;;19.70;99.90;;;;;;7324007;19;9165;-84
2023/08/15 06:20:17;;;;;;;;;;;19.60;99.90;;;;;;7330056;19;9631;-84
2023/08/15 06:22:46;;;;;;;;;;;19.60;99.90;;;;;;7329984;19;9090;-84
2023/08/15 06:25:15;;;;;;;;;;;19.70;99.90;;;;;;7329680;19;9000;-83
2023/08/15 06:27:44;;;;;;;;;;;19.70;99.90;;;;;;7329698;19;9189;-84
2023/08/15 06:30:13;;;;;;;;;;;19.80;99.90;;;;;;7329271;19;9161;-85
2023/08/15 06:32:44;;;;;;;;;;;19.80;99.90;;;;;;7330478;19;9548;-83
2023/08/15 06:35:16;;;;;;;;;;;19.70;99.90;;;;;;7329145;19;8948;-83
2023/08/15 06:37:45;;;;;;;;;;;19.70;99.90;;;;;;7329528;19;9455;-84
2023/08/15 06:40:14;;;;;;;;;;;19.80;99.90;;;;;;7327345;19;9135;-84
2023/08/15 06:42:43;;;;;;;;;;;19.80;99.90;;;;;;7327564;19;10367;-83
2023/08/15 06:45:16;;;;;;;;;;;19.80;99.90;;;;;;7329107;19;9169;-84
2023/08/15 06:47:45;;;;;;;;;;;19.90;99.90;;;;;;7328874;19;9528;-84
2023/08/15 06:50:17;;;;;;;;;;;19.90;99.90;;;;;;7328626;19;9528;-84
2023/08/15 06:52:45;;;;;;;;;;;20.00;99.90;;;;;;7329063;19;9177;-83
2023/08/15 06:55:14;;;;;;;;;;;20.00;99.90;;;;;;7329218;19;9178;-84
2023/08/15 06:57:43;;;;;;;;;;;20.00;99.90;;;;;;7330791;19;9307;-83
2023/08/15 07:00:15;;;;;;;;;;;20.00;99.90;;;;;;7334204;19;9165;-84
2023/08/15 07:02:44;;;;;;;;;;;20.00;99.90;;;;;;7334653;19;9138;-84
2023/08/15 07:05:16;;;;;;;;;;;19.90;99.90;;;;;;7330055;19;9351;-84
2023/08/15 07:07:44;;;;;;;;;;;19.90;99.90;;;;;;7328490;19;9235;-84
2023/08/15 07:10:14;;;;;;;;;;;20.00;99.90;;;;;;7327914;19;9015;-84
2023/08/15 07:12:43;;;;;;;;;;;20.20;99.90;;;;;;7330146;19;9121;-83
2023/08/15 07:15:12;;;;;;;;;;;20.50;99.90;;;;;;7328503;19;9277;-84
2023/08/15 07:17:41;;;;;;;;;;;20.60;99.90;;;;;;7328206;19;9165;-84
2023/08/15 07:20:14;;;;;;;;;;;20.80;99.90;;;;;;7328045;19;10413;-84
2023/08/15 07:22:45;;;;;;;;;;;20.80;99.90;;;;;;7327944;19;9185;-84
2023/08/15 07:25:14;;;;;;;;;;;20.90;99.90;;;;;;7327751;19;10170;-84
2023/08/15 07:27:43;;;;;;;;;;;21.20;99.90;;;;;;7327750;19;9169;-83
2023/08/15 07:30:13;;;;;;;;;;;21.40;99.90;;;;;;7325046;19;9491;-83
2023/08/15 07:32:42;;;;;;;;;;;21.40;99.90;;;;;;7327920;19;9453;-84
2023/08/15 07:35:12;;;;;;;;;;;21.40;99.90;;;;;;7327879;19;9184;-83
2023/08/15 07:37:45;;;;;;;;;;;21.60;99.90;;;;;;7327761;19;9185;-83
2023/08/15 07:40:22;;;;;;;;;;;21.80;99.90;;;;;;7326384;19;9177;-83
2023/08/15 07:42:54;;;;;;;;;;;22.00;99.90;;;;;;7326165;19;9180;-83
2023/08/15 07:45:23;;;;;;;;;;;22.20;99.90;;;;;;7327316;19;8944;-83
2023/08/15 07:47:56;;;;;;;;;;;22.30;99.90;;;;;;7327308;19;9246;-83
2023/08/15 07:50:26;;;;;;;;;;;22.50;99.90;;;;;;7326803;19;9316;-83
2023/08/15 07:53:00;;;;;;;;;;;22.70;99.90;;;;;;7326906;19;9498;-83
2023/08/15 07:55:30;;;;;;;;;;;22.90;99.90;;;;;;7326917;19;9286;-83
2023/08/15 07:57:59;;;;;;;;;;;23.30;99.90;;;;;;7326524;19;9476;-82
2023/08/15 08:00:28;;;;;;;;;;;23.50;99.90;;;;;;7327111;19;9383;-83
2023/08/15 08:02:59;;;;;;;;;;;23.60;99.90;;;;;;7326535;19;9422;-83
2023/08/15 08:05:28;;;;;;;;;;;23.50;99.90;;;;;;7326566;19;11201;-83
2023/08/15 08:08:00;;;;;;;;;;;23.60;99.90;;;;;;7326628;19;9285;-83
2023/08/15 08:10:29;;;;;;;;;;;23.80;99.90;;;;;;7326799;19;9466;-83
2023/08/15 08:12:59;;;;;;;;;;;23.90;99.60;;;;;;7326870;19;9417;-83
2023/08/15 08:15:28;;;;;;;;;;;24.00;99.40;;;;;;7331714;19;9136;-83
2023/08/15 08:17:57;;;;;;;;;;;24.00;99.40;;;;;;7330754;19;9150;-83
2023/08/15 08:20:27;;;;;;;;;;;23.90;99.90;;;;;;7330583;19;9253;-83
2023/08/15 08:22:56;;;;;;;;;;;24.00;99.90;;;;;;7330080;19;9309;-84
2023/08/15 08:25:29;;;;;;;;;;;24.00;99.90;;;;;;7325975;19;9659;-83
2023/08/15 08:27:58;;;;;;;;;;;24.20;99.60;;;;;;7326050;19;10181;-83
2023/08/15 08:30:26;;;;;;;;;;;24.20;99.70;;;;;;7325764;19;9307;-83
2023/08/15 08:32:55;;;;;;;;;;;24.00;99.80;;;;;;7323676;19;11417;-83
2023/08/15 08:35:24;;;;;;;;;;;24.00;99.90;;;;;;7325979;19;9477;-83
2023/08/15 08:37:54;;;;;;;;;;;23.90;99.70;;;;;;7325713;19;9189;-83
2023/08/15 08:40:23;;;;;;;;;;;23.80;99.60;;;;;;7323053;19;9259;-82
2023/08/15 08:42:55;;;;;;;;;;;23.60;99.80;;;;;;7324460;19;9458;-83
2023/08/15 08:45:28;;;;;;;;;;;23.40;99.90;;;;;;7325608;19;9516;-83
2023/08/15 08:47:58;;;;;;;;;;;23.10;99.90;;;;;;7325501;19;9790;-83
2023/08/15 08:50:28;;;;;;;;;;;23.00;99.90;;;;;;7325402;19;9459;-83
2023/08/15 08:52:58;;;;;;;;;;;22.90;99.90;;;;;;7323251;19;9225;-82
2023/08/15 08:55:29;;;;;;;;;;;22.90;99.90;;;;;;7325020;19;9260;-83
2023/08/15 08:58:04;;;;;;;;;;;22.90;99.90;;;;;;7325138;19;9569;-83
2023/08/15 09:00:35;;;;;;;;;;;22.80;99.90;;;;;;7325490;19;9431;-82
2023/08/15 09:03:04;;;;;;;;;;;22.80;99.90;;;;;;7326452;19;9654;-83
2023/08/15 09:05:33;;;;;;;;;;;22.80;99.90;;;;;;7327292;19;9109;-82
2023/08/15 09:08:04;;;;;;;;;;;22.80;99.90;;;;;;7327503;19;9312;-83
2023/08/15 09:10:33;;;;;;;;;;;22.90;99.90;;;;;;7325540;19;9208;-83
2023/08/15 09:13:05;;;;;;;;;;;23.00;99.90;;;;;;7322943;19;9291;-83
2023/08/15 09:15:35;;;;;;;;;;;23.20;99.90;;;;;;7324529;19;9193;-83
2023/08/15 09:18:07;;;;;;;;;;;23.20;99.90;;;;;;7324177;19;9449;-83
2023/08/15 09:20:47;;;;;;;;;;;23.30;99.90;;;;;;7324164;19;9128;-83
2023/08/15 09:23:16;;;;;;;;;;;23.40;99.90;;;;;;7324565;19;9184;-83
2023/08/15 09:25:47;;;;;;;;;;;23.40;99.90;;;;;;7324002;19;10085;-83
2023/08/15 09:28:19;;;;;;;;;;;23.30;99.90;;;;;;7323685;19;9242;-83
2023/08/15 09:30:56;;;;;;;;;;;23.20;99.90;;;;;;7324114;19;9164;-82
2023/08/15 09:33:25;;;;;;;;;;;23.30;99.90;;;;;;7324107;19;10261;-82
2023/08/15 09:35:54;;;;;;;;;;;23.30;99.90;;;;;;7323837;19;9189;-82
2023/08/15 09:38:23;;;;;;;;;;;23.30;99.90;;;;;;7323768;19;10153;-83
2023/08/15 09:40:55;;;;;;;;;;;23.40;99.90;;;;;;7322176;19;9236;-82
2023/08/15 09:43:26;;;;;;;;;;;23.30;99.90;;;;;;7322409;19;9316;-83
2023/08/15 09:45:56;;;;;;;;;;;23.40;99.90;;;;;;7323887;19;9109;-83
2023/08/15 09:48:25;;;;;;;;;;;23.50;99.90;;;;;;7323554;19;9146;-83
2023/08/15 09:50:57;;;;;;;;;;;23.60;99.90;;;;;;7323250;19;9189;-82
2023/08/15 09:53:27;;;;;;;;;;;23.70;99.90;;;;;;7319224;19;9185;-83
2023/08/15 09:55:56;;;;;;;;;;;23.80;99.90;;;;;;7323336;19;9387;-82
2023/08/15 09:58:27;;;;;;;;;;;24.00;99.80;;;;;;7323570;19;9280;-82
2023/08/15 10:00:57;;;;;;;;;;;24.10;98.90;;;;;;7323275;19;9239;-83
2023/08/15 10:03:35;;;;;;;;;;;24.10;97.90;;;;;;7323193;19;9273;-83
2023/08/15 10:06:07;;;;;;;;;;;24.10;98.50;;;;;;7323284;19;9201;-83
2023/08/15 10:08:39;;;;;;;;;;;24.00;98.60;;;;;;7322752;19;9300;-83
2023/08/15 10:11:10;;;;;;;;;;;23.90;98.80;;;;;;7324051;19;9295;-83
2023/08/15 10:13:42;;;;;;;;;;;24.00;98.40;;;;;;7322816;19;9269;-82
2023/08/15 10:16:15;;;;;;;;;;;24.00;98.50;;;;;;7322589;19;9286;-82
2023/08/15 10:18:54;;;;;;;;;;;24.20;98.30;;;;;;7322608;19;8944;-83
2023/08/15 10:21:26;;;;;;;;;;;24.30;98.30;;;;;;7322514;19;9177;-83
2023/08/15 10:23:56;;;;;;;;;;;24.40;97.60;;;;;;7322554;19;9186;-82
2023/08/15 10:26:26;;;;;;;;;;;24.30;97.30;;;;;;7322337;19;9238;-82
2023/08/15 10:28:59;;;;;;;;;;;24.30;97.00;;;;;;7322444;19;9236;-83
2023/08/15 10:31:38;;;;;;;;;;;24.20;97.40;;;;;;7322153;19;9246;-83
2023/08/15 10:34:10;;;;;;;;;;;24.00;97.90;;;;;;7322762;19;9242;-83
2023/08/15 10:36:39;;;;;;;;;;;23.90;98.10;;;;;;7322457;19;9316;-83
2023/08/15 10:39:09;;;;;;;;;;;23.80;98.20;;;;;;7321916;19;9266;-83
2023/08/15 10:41:39;;;;;;;;;;;23.80;98.60;;;;;;7322476;19;9323;-83
2023/08/15 10:44:11;;;;;;;;;;;23.80;99.00;;;;;;7322090;19;9209;-83
2023/08/15 10:46:40;;;;;;;;;;;23.70;98.70;;;;;;7321817;19;9279;-83
2023/08/15 10:49:13;;;;;;;;;;;23.80;98.40;;;;;;7321897;19;9286;-83
2023/08/15 10:51:44;;;;;;;;;;;23.90;98.50;;;;;;7321171;19;9185;-83
2023/08/15 10:54:15;;;;;;;;;;;24.00;98.00;;;;;;7321556;19;10425;-82
2023/08/15 10:56:45;;;;;;;;;;;24.10;97.60;;;;;;7321714;19;9134;-82
2023/08/15 10:59:21;;;;;;;;;;;24.20;97.20;;;;;;7321416;19;9189;-82
2023/08/15 11:01:50;;;;;;;;;;;24.40;96.00;;;;;;7321486;19;9358;-83
2023/08/15 11:04:21;;;;;;;;;;;24.50;95.50;;;;;;7325129;19;9208;-83
2023/08/15 11:06:52;;;;;;;;;;;24.60;95.30;;;;;;7329217;19;9318;-83
2023/08/15 11:09:21;;;;;;;;;;;24.60;94.80;;;;;;7329695;19;9458;-83
2023/08/15 11:11:50;;;;;;;;;;;24.50;94.90;;;;;;7334238;19;8975;-83
2023/08/15 11:14:22;;;;;;;;;;;24.50;95.00;;;;;;7330459;19;9323;-84
2023/08/15 11:16:52;;;;;;;;;;;24.60;95.20;;;;;;7329010;19;8945;-84
2023/08/15 11:19:22;;;;;;;;;;;24.70;94.80;;;;;;7328572;19;9229;-83
2023/08/15 11:21:53;;;;;;;;;;;24.70;94.40;;;;;;7328285;19;9339;-83
2023/08/15 11:24:22;;;;;;;;;;;24.70;94.00;;;;;;7328340;19;9221;-83
2023/08/15 11:26:51;;;;;;;;;;;24.60;94.00;;;;;;7328225;19;9115;-83
2023/08/15 11:29:22;;;;;;;;;;;24.50;94.40;;;;;;7328032;19;8944;-83
2023/08/15 11:31:54;;;;;;;;;;;24.40;94.00;;;;;;7327574;19;9131;-84
2023/08/15 11:34:24;;;;;;;;;;;24.40;94.10;;;;;;7328118;19;9248;-83
2023/08/15 11:36:54;;;;;;;;;;;24.50;94.30;;;;;;7328133;19;9196;-83
2023/08/15 11:39:25;;;;;;;;;;;24.70;93.80;;;;;;7327395;19;9185;-83
2023/08/15 11:41:54;;;;;;;;;;;24.90;93.20;;;;;;7327175;19;9283;-83
2023/08/15 11:44:26;;;;;;;;;;;24.90;92.80;;;;;;7327580;19;9466;-83
2023/08/15 11:46:55;;;;;;;;;;;24.80;92.70;;;;;;7327308;19;9195;-83
2023/08/15 11:49:25;;;;;;;;;;;24.80;92.40;;;;;;7327257;19;9421;-83
2023/08/15 11:52:04;;;;;;;;;;;24.60;92.70;;;;;;7326880;19;9579;-83
2023/08/15 11:54:33;;;;;;;;;;;24.40;93.20;;;;;;7327194;19;9221;-83
2023/08/15 11:57:02;;;;;;;;;;;24.50;93.60;;;;;;7327583;19;9153;-83
2023/08/15 11:59:34;;;;;;;;;;;24.60;93.60;;;;;;7326817;19;9106;-84
2023/08/15 12:02:04;;;;;;;;;;;24.50;93.20;;;;;;7327125;19;10305;-84
2023/08/15 12:04:36;;;;;;;;;;;24.50;93.60;;;;;;7326475;19;9165;-84
2023/08/15 12:07:05;;;;;;;;;;;24.50;93.60;;;;;;7326646;19;9178;-84
2023/08/15 12:09:35;;;;;;;;;;;24.70;93.20;;;;;;7325486;19;10806;-84
2023/08/15 12:12:04;;;;;;;;;;;24.90;92.50;;;;;;7326294;19;9224;-84
2023/08/15 12:14:35;;;;;;;;;;;24.90;92.30;;;;;;7326387;19;9469;-85
2023/08/15 12:17:04;;;;;;;;;;;24.90;92.60;;;;;;7324671;19;9233;-84
2023/08/15 12:19:33;;;;;;;;;;;24.80;92.40;;;;;;7326281;19;9233;-83
2023/08/15 12:22:02;;;;;;;;;;;24.60;92.70;;;;;;7326270;19;9173;-84
2023/08/15 12:24:31;;;;;;;;;;;24.50;93.10;;;;;;7326157;19;9260;-84
2023/08/15 12:27:02;;;;;;;;;;;24.50;93.50;;;;;;7326346;19;9493;-84
2023/08/15 12:29:31;;;;;;;;;;;24.40;93.50;;;;;;7326127;19;9288;-84
2023/08/15 12:32:03;;;;;;;;;;;24.30;94.20;;;;;;7325972;19;10161;-84
2023/08/15 12:34:32;;;;;;;;;;;24.50;94.20;;;;;;7325850;19;9193;-84
2023/08/15 12:37:01;;;;;;;;;;;24.80;93.40;;;;;;7325642;19;9421;-84
2023/08/15 12:39:32;;;;;;;;;;;25.00;92.80;;;;;;7324852;19;9127;-84
2023/08/15 12:42:01;;;;;;;;;;;25.10;92.30;;;;;;7324915;19;10430;-84
2023/08/15 12:44:31;;;;;;;;;;;25.00;92.60;;;;;;7325607;19;9383;-84
2023/08/15 12:47:02;;;;;;;;;;;24.90;91.80;;;;;;7325298;19;9201;-84
2023/08/15 12:49:31;;;;;;;;;;;24.80;92.10;;;;;;7325344;19;9203;-84
2023/08/15 12:52:03;;;;;;;;;;;24.70;92.30;;;;;;7325135;19;9131;-84
2023/08/15 12:54:32;;;;;;;;;;;24.70;92.50;;;;;;7323019;19;9808;-85
2023/08/15 12:57:04;;;;;;;;;;;24.70;92.70;;;;;;7325430;19;9176;-85
2023/08/15 12:59:33;;;;;;;;;;;24.80;92.50;;;;;;7325140;19;9346;-85
2023/08/15 13:02:05;;;;;;;;;;;24.80;92.40;;;;;;7325017;19;9000;-84
2023/08/15 13:04:34;;;;;;;;;;;24.80;92.50;;;;;;7325112;19;9233;-85
2023/08/15 13:07:03;;;;;;;;;;;25.00;92.10;;;;;;7324590;19;9345;-84
2023/08/15 13:09:32;;;;;;;;;;;25.10;92.00;;;;;;7325060;19;9145;-84
2023/08/15 13:12:01;;;;;;;;;;;25.20;91.30;;;;;;7324780;19;11164;-84
2023/08/15 13:14:30;;;;;;;;;;;25.20;90.80;;;;;;7323476;19;9177;-84
2023/08/15 13:17:00;;;;;;;;;;;25.30;91.00;;;;;;7327771;19;10385;-85
2023/08/15 13:19:32;;;;;;;;;;;25.40;90.60;;;;;;7326241;19;9250;-82
2023/08/15 13:22:02;;;;;;;;;;;25.40;90.50;;;;;;7324411;19;9485;-84
2023/08/15 13:24:31;;;;;;;;;;;25.30;90.30;;;;;;7324209;19;9146;-84
2023/08/15 13:26:59;;;;;;;;;;;25.30;90.40;;;;;;7324090;19;9321;-85
2023/08/15 13:29:29;;;;;;;;;;;25.30;90.30;;;;;;7324006;19;9579;-85
2023/08/15 13:31:58;;;;;;;;;;;25.10;90.60;;;;;;7324012;19;9382;-84
2023/08/15 13:34:27;;;;;;;;;;;24.90;91.30;;;;;;7322302;19;9198;-85
2023/08/15 13:36:59;;;;;;;;;;;24.70;91.60;;;;;;7323752;19;9187;-84
2023/08/15 13:39:30;;;;;;;;;;;24.60;92.10;;;;;;7323484;19;9438;-82
2023/08/15 13:41:59;;;;;;;;;;;24.60;92.30;;;;;;7323601;19;9218;-82
2023/08/15 13:44:29;;;;;;;;;;;24.60;92.80;;;;;;7323359;19;9193;-82
2023/08/15 13:46:59;;;;;;;;;;;24.60;92.60;;;;;;7323666;19;9193;-85
2023/08/15 13:49:28;;;;;;;;;;;24.60;92.70;;;;;;7323315;19;9760;-82
2023/08/15 13:52:00;;;;;;;;;;;24.60;92.60;;;;;;7323284;19;9209;-81
2023/08/15 13:54:29;;;;;;;;;;;24.60;92.60;;;;;;7321844;19;9330;-82
2023/08/15 13:56:58;;;;;;;;;;;24.60;92.80;;;;;;7323187;19;9135;-82
2023/08/15 13:59:27;;;;;;;;;;;24.70;92.90;;;;;;7323058;19;9104;-82
2023/08/15 14:01:56;;;;;;;;;;;24.60;92.90;;;;;;7323069;19;9282;-82
2023/08/15 14:04:25;;;;;;;;;;;24.50;93.20;;;;;;7323037;19;9792;-82
2023/08/15 14:06:58;;;;;;;;;;;24.40;93.40;;;;;;7322839;19;9174;-82
2023/08/15 14:09:30;;;;;;;;;;;24.40;93.60;;;;;;7323336;19;9243;-82
2023/08/15 14:11:59;;;;;;;;;;;24.40;93.70;;;;;;7323041;19;9631;-82
2023/08/15 14:14:28;;;;;;;;;;;24.40;94.00;;;;;;7321391;19;9207;-83
2023/08/15 14:16:57;;;;;;;;;;;24.50;94.00;;;;;;7322954;19;10360;-82
2023/08/15 14:19:26;;;;;;;;;;;24.70;93.70;;;;;;7322537;19;9129;-82
2023/08/15 14:21:55;;;;;;;;;;;24.70;93.50;;;;;;7322610;19;9665;-82
2023/08/15 14:24:24;;;;;;;;;;;24.80;93.20;;;;;;7322375;19;9161;-82
2023/08/15 14:26:55;;;;;;;;;;;24.90;92.90;;;;;;7322445;19;9174;-82
2023/08/15 14:29:24;;;;;;;;;;;24.70;92.90;;;;;;7322111;19;9529;-83
2023/08/15 14:31:53;;;;;;;;;;;24.60;93.20;;;;;;7322023;19;9231;-82
2023/08/15 14:34:22;;;;;;;;;;;24.60;93.50;;;;;;7320912;19;9514;-83
2023/08/15 14:36:51;;;;;;;;;;;24.60;93.80;;;;;;7322177;19;9215;-83
2023/08/15 14:39:20;;;;;;;;;;;24.50;94.00;;;;;;7325091;19;9168;-82
2023/08/15 14:41:49;;;;;;;;;;;24.40;94.40;;;;;;7329287;19;9598;-82
2023/08/15 14:44:22;;;;;;;;;;;24.40;94.40;;;;;;7329361;19;9107;-82
2023/08/15 14:46:51;;;;;;;;;;;24.30;94.90;;;;;;7329565;19;9191;-82